createdAt,value
2023-01-25T00:00:31.215Z,0.07
2023-01-25T00:02:58.985Z,-0.03
2023-01-25T00:05:26.685Z,0.42
2023-01-25T00:07:54.455Z,0.80
2023-01-25T00:10:24.469Z,0.76
2023-01-25T00:12:52.306Z,0.76
2023-01-25T00:15:20.040Z,0.83
2023-01-25T00:17:47.756Z,0.46
2023-01-25T00:20:15.978Z,0.54
2023-01-25T00:22:43.744Z,0.87
2023-01-25T00:25:11.500Z,0.80
2023-01-25T00:27:39.247Z,0.37
2023-01-25T00:30:07.562Z,-0.44
2023-01-25T00:32:47.580Z,0.12
2023-01-25T00:35:15.403Z,0.53
2023-01-25T00:37:43.911Z,-0.23
2023-01-25T00:40:12.857Z,0.20
2023-01-25T00:42:40.946Z,0.52
2023-01-25T00:45:10.786Z,0.01
2023-01-25T00:47:38.640Z,0.49
2023-01-25T00:50:07.457Z,0.70
2023-01-25T00:52:35.264Z,0.73
2023-01-25T00:55:03.506Z,0.86
2023-01-25T00:57:31.211Z,1.06
2023-01-25T00:59:58.959Z,1.07
2023-01-25T01:02:26.682Z,0.70
2023-01-25T01:04:56.669Z,0.12
2023-01-25T01:07:24.475Z,0.32
2023-01-25T01:09:53.137Z,0.35
2023-01-25T01:12:20.799Z,0.39
2023-01-25T01:14:48.572Z,0.28
2023-01-25T01:17:16.311Z,0.51
2023-01-25T01:19:44.053Z,0.17
2023-01-25T01:22:11.884Z,0.04
2023-01-25T01:24:39.882Z,0.53
2023-01-25T01:27:07.641Z,0.44
2023-01-25T01:29:35.393Z,-1.45
2023-01-25T01:32:03.414Z,-0.60
2023-01-25T01:34:31.445Z,-0.24
2023-01-25T01:36:59.167Z,-0.09
2023-01-25T01:39:26.893Z,-0.10
2023-01-25T01:41:55.044Z,0.07
2023-01-25T01:44:44.429Z,-1.05
2023-01-25T01:47:31.592Z,-0.53
2023-01-25T01:50:06.338Z,-0.31
2023-01-25T01:52:36.279Z,0.16
2023-01-25T01:55:15.205Z,0.04
2023-01-25T01:57:47.218Z,-0.16
2023-01-25T02:00:17.878Z,0.01
2023-01-25T02:02:46.707Z,-1.10
2023-01-25T02:05:19.703Z,-0.65
2023-01-25T02:07:47.667Z,-0.83
2023-01-25T02:10:15.490Z,-0.72
2023-01-25T02:12:45.744Z,0.06
2023-01-25T02:15:13.618Z,-0.31
2023-01-25T02:17:41.741Z,-0.33
2023-01-25T02:20:40.470Z,-0.07
2023-01-25T02:23:22.749Z,0.31
2023-01-25T02:25:50.558Z,-0.01
2023-01-25T02:28:30.065Z,-0.06
2023-01-25T02:30:57.957Z,-0.00
2023-01-25T02:33:26.380Z,-0.18
2023-01-25T02:35:59.196Z,0.06
2023-01-25T02:38:27.053Z,0.03
2023-01-25T02:41:00.763Z,0.54
2023-01-25T02:43:31.487Z,0.60
2023-01-25T02:46:13.361Z,0.43
2023-01-25T02:48:44.851Z,-0.27
2023-01-25T02:51:13.017Z,-0.13
2023-01-25T02:53:41.472Z,0.54
2023-01-25T02:56:09.163Z,0.27
2023-01-25T02:58:36.984Z,0.08
2023-01-25T03:01:04.669Z,0.11
2023-01-25T03:03:32.458Z,0.57
2023-01-25T03:06:00.173Z,0.39
2023-01-25T03:08:28.504Z,0.18
2023-01-25T03:10:59.907Z,0.37
2023-01-25T03:13:29.916Z,0.88
2023-01-25T03:16:06.217Z,0.93
2023-01-25T03:18:34.960Z,0.66
2023-01-25T03:21:21.562Z,0.26
2023-01-25T03:23:55.334Z,0.34
2023-01-25T03:26:25.292Z,0.41
2023-01-25T03:29:08.104Z,0.49
2023-01-25T03:31:39.835Z,0.66
2023-01-25T03:34:08.141Z,0.66
2023-01-25T03:36:39.825Z,0.64
2023-01-25T03:39:07.788Z,0.51
2023-01-25T03:41:40.538Z,0.84
2023-01-25T03:44:11.659Z,0.75
2023-01-25T03:46:40.468Z,0.07
2023-01-25T03:49:08.275Z,0.31
2023-01-25T03:51:36.668Z,-0.00
2023-01-25T03:54:04.922Z,0.32
2023-01-25T03:56:35.957Z,0.66
2023-01-25T03:59:18.382Z,0.39
2023-01-25T04:01:46.408Z,0.41
2023-01-25T04:04:14.494Z,0.18
2023-01-25T04:06:44.819Z,0.34
2023-01-25T04:09:14.602Z,0.43
2023-01-25T04:11:50.134Z,0.39
2023-01-25T04:14:25.509Z,0.48
2023-01-25T04:17:05.534Z,-0.06
2023-01-25T04:19:59.201Z,0.01
2023-01-25T04:22:33.837Z,-0.45
2023-01-25T04:25:01.693Z,0.08
2023-01-25T04:27:29.998Z,-0.13
2023-01-25T04:30:09.226Z,0.03
2023-01-25T04:32:38.334Z,-0.58
2023-01-25T04:35:16.952Z,-0.06
2023-01-25T04:37:45.102Z,0.11
2023-01-25T04:40:13.518Z,0.55
2023-01-25T04:42:45.163Z,0.62
2023-01-25T04:45:13.784Z,0.64
2023-01-25T04:47:41.934Z,0.82
2023-01-25T04:50:10.842Z,1.01
2023-01-25T04:52:39.005Z,0.84
2023-01-25T04:55:07.732Z,0.91
2023-01-25T04:57:41.505Z,0.74
2023-01-25T05:00:10.059Z,0.90
2023-01-25T05:02:39.739Z,0.70
2023-01-25T05:05:10.135Z,0.82
2023-01-25T05:07:38.415Z,1.01
2023-01-25T05:10:06.980Z,1.02
2023-01-25T05:12:35.699Z,0.74
2023-01-25T05:15:07.755Z,0.65
2023-01-25T05:17:35.799Z,0.90
2023-01-25T05:20:03.971Z,1.01
2023-01-25T05:22:31.747Z,0.89
2023-01-25T05:24:59.525Z,0.83
2023-01-25T05:27:27.347Z,0.80
2023-01-25T05:29:55.338Z,0.95
2023-01-25T05:32:43.975Z,0.52
2023-01-25T05:35:11.956Z,0.42
2023-01-25T05:37:40.519Z,0.73
2023-01-25T05:40:15.140Z,0.86
2023-01-25T05:42:44.469Z,0.75
2023-01-25T05:45:18.895Z,0.86
2023-01-25T05:47:52.709Z,0.57
2023-01-25T05:50:21.060Z,0.77
2023-01-25T05:52:58.914Z,0.90
2023-01-25T05:55:27.402Z,1.14
2023-01-25T05:57:56.972Z,0.73
2023-01-25T06:00:25.248Z,0.76
2023-01-25T06:02:53.019Z,0.84
2023-01-25T06:05:25.072Z,1.02
2023-01-25T06:07:52.836Z,0.98
2023-01-25T06:10:23.250Z,0.93
2023-01-25T06:12:52.529Z,0.97
2023-01-25T06:15:20.271Z,1.00
2023-01-25T06:17:48.283Z,0.85
2023-01-25T06:20:27.805Z,1.07
2023-01-25T06:23:07.571Z,0.69
2023-01-25T06:25:35.355Z,0.73
2023-01-25T06:28:03.020Z,0.90
2023-01-25T06:30:30.750Z,0.97
2023-01-25T06:32:58.879Z,1.01
2023-01-25T06:35:26.979Z,0.81
2023-01-25T06:37:58.332Z,0.73
2023-01-25T06:40:26.559Z,0.74
2023-01-25T06:42:54.487Z,0.94
2023-01-25T06:45:22.258Z,0.95
2023-01-25T06:47:49.930Z,0.68
2023-01-25T06:50:17.734Z,0.85
2023-01-25T06:52:51.947Z,0.87
2023-01-25T06:55:19.892Z,0.72
2023-01-25T06:57:47.613Z,0.14
2023-01-25T07:00:16.294Z,0.30
2023-01-25T07:02:44.124Z,0.73
2023-01-25T07:05:12.194Z,0.73
2023-01-25T07:07:39.958Z,0.81
2023-01-25T07:10:08.174Z,0.88
2023-01-25T07:12:35.886Z,0.73
2023-01-25T07:15:03.981Z,0.99
2023-01-25T07:17:31.685Z,1.03
2023-01-25T07:19:59.406Z,0.82
2023-01-25T07:22:27.070Z,0.73
2023-01-25T07:24:57.786Z,0.96
2023-01-25T07:27:25.492Z,0.82
2023-01-25T07:29:53.228Z,1.00
2023-01-25T07:32:20.983Z,0.88
2023-01-25T07:34:48.722Z,1.10
2023-01-25T07:37:16.674Z,1.05
2023-01-25T07:39:49.576Z,0.21
2023-01-25T07:42:17.454Z,0.44
2023-01-25T07:44:52.852Z,0.24
2023-01-25T07:47:20.675Z,0.63
2023-01-25T07:49:48.364Z,0.27
2023-01-25T07:52:16.074Z,0.61
2023-01-25T07:54:43.840Z,0.83
2023-01-25T07:57:11.695Z,0.59
2023-01-25T07:59:39.368Z,0.49
2023-01-25T08:02:10.074Z,0.69
2023-01-25T08:04:38.839Z,0.98
2023-01-25T08:07:06.500Z,0.32
2023-01-25T08:09:34.201Z,0.47
2023-01-25T08:12:01.919Z,0.82
2023-01-25T08:14:29.601Z,0.66
2023-01-25T08:16:57.301Z,0.74
2023-01-25T08:19:26.786Z,0.40
2023-01-25T08:21:54.532Z,0.40
2023-01-25T08:24:24.522Z,0.35
2023-01-25T08:26:53.071Z,0.31
2023-01-25T08:29:20.785Z,0.53
2023-01-25T08:31:48.565Z,0.39
2023-01-25T08:34:16.264Z,0.64
2023-01-25T08:36:44.217Z,0.55
2023-01-25T08:39:12.108Z,0.41
2023-01-25T08:41:40.134Z,0.71
2023-01-25T08:44:07.811Z,0.56
2023-01-25T08:46:35.705Z,1.09
2023-01-25T08:49:03.473Z,1.17
2023-01-25T08:51:31.990Z,1.20
2023-01-25T08:54:04.266Z,0.88
2023-01-25T08:56:32.057Z,0.97
2023-01-25T08:58:59.767Z,0.58
2023-01-25T09:01:27.833Z,1.14
2023-01-25T09:03:55.552Z,0.99
2023-01-25T09:06:23.383Z,1.10
2023-01-25T09:08:51.240Z,1.20
2023-01-25T09:11:20.340Z,1.04
2023-01-25T09:13:48.976Z,1.34
2023-01-25T09:16:28.377Z,1.10
2023-01-25T09:18:57.715Z,1.04
2023-01-25T09:21:25.517Z,0.54
2023-01-25T09:24:08.915Z,0.72
2023-01-25T09:26:38.558Z,1.01
2023-01-25T09:29:08.023Z,1.13
2023-01-25T09:31:40.402Z,1.16
2023-01-25T09:34:34.646Z,0.86
2023-01-25T09:37:02.414Z,1.08
2023-01-25T09:39:30.253Z,1.00
2023-01-25T09:42:22.562Z,0.68
2023-01-25T09:45:22.834Z,1.06
2023-01-25T09:48:15.135Z,1.16
2023-01-25T09:50:45.900Z,0.89
2023-01-25T09:53:25.555Z,0.89
2023-01-25T09:55:58.848Z,0.58
2023-01-25T09:58:38.436Z,0.93
2023-01-25T10:01:46.746Z,1.18
2023-01-25T10:04:19.883Z,0.99
2023-01-25T10:06:59.998Z,1.04
2023-01-25T10:09:42.707Z,1.11
2023-01-25T10:12:20.331Z,0.86
2023-01-25T10:14:48.511Z,0.63
2023-01-25T10:17:35.398Z,1.07
2023-01-25T10:20:13.329Z,0.82
2023-01-25T10:22:47.553Z,0.62
2023-01-25T10:25:25.342Z,0.68
2023-01-25T10:28:17.536Z,0.63
2023-01-25T10:30:57.884Z,0.86
2023-01-25T10:33:25.792Z,0.53
2023-01-25T10:35:54.657Z,0.89
2023-01-25T10:38:35.144Z,0.93
2023-01-25T10:41:06.985Z,0.39
2023-01-25T10:43:34.744Z,0.72
2023-01-25T10:46:02.651Z,0.93
2023-01-25T10:48:33.196Z,0.80
2023-01-25T10:51:00.954Z,0.68
2023-01-25T10:53:28.736Z,0.79
2023-01-25T10:56:00.712Z,1.14
2023-01-25T10:58:38.546Z,0.59
2023-01-25T11:01:07.739Z,0.77
2023-01-25T11:03:47.405Z,1.00
2023-01-25T11:06:15.117Z,1.10
2023-01-25T11:08:43.237Z,1.13
2023-01-25T11:11:25.565Z,1.09
2023-01-25T11:13:56.951Z,1.39
2023-01-25T11:16:31.500Z,1.26
2023-01-25T11:18:59.883Z,1.05
2023-01-25T11:21:29.072Z,1.32
2023-01-25T11:24:09.710Z,1.29
2023-01-25T11:26:38.787Z,1.40
2023-01-25T11:29:07.682Z,1.46
2023-01-25T11:31:35.747Z,1.25
2023-01-25T11:34:05.342Z,1.02
2023-01-25T11:36:52.130Z,1.41
2023-01-25T11:39:38.319Z,1.12
2023-01-25T11:42:24.501Z,1.32
2023-01-25T11:45:07.526Z,0.69
2023-01-25T11:47:59.460Z,0.69
2023-01-25T11:50:35.889Z,0.61
2023-01-25T11:53:35.780Z,1.00
2023-01-25T11:56:09.298Z,0.96
2023-01-25T11:58:41.002Z,0.79
2023-01-25T12:01:21.025Z,0.32
2023-01-25T12:04:17.721Z,-0.72
2023-01-25T12:06:48.960Z,-0.80
2023-01-25T12:09:47.727Z,-0.86
2023-01-25T12:12:27.503Z,-1.26
2023-01-25T12:15:17.079Z,-1.15
2023-01-25T12:18:03.622Z,-0.69
2023-01-25T12:20:40.384Z,-0.83
2023-01-25T12:23:26.646Z,0.03
2023-01-25T12:26:16.038Z,0.32
2023-01-25T12:28:50.537Z,0.74
2023-01-25T12:31:29.197Z,0.97
2023-01-25T12:33:59.107Z,0.67
2023-01-25T12:36:39.799Z,0.99
2023-01-25T12:39:12.910Z,1.23
2023-01-25T12:41:51.990Z,1.40
2023-01-25T12:44:27.778Z,1.23
2023-01-25T12:46:57.922Z,0.83
2023-01-25T12:49:34.842Z,0.78
2023-01-25T12:52:06.160Z,0.79
2023-01-25T12:54:36.304Z,0.79
2023-01-25T12:57:07.047Z,0.25
2023-01-25T12:59:50.383Z,-0.05
2023-01-25T13:02:32.705Z,0.54
2023-01-25T13:05:21.750Z,0.19
2023-01-25T13:08:01.539Z,0.46
2023-01-25T13:10:45.921Z,0.73
2023-01-25T13:13:33.312Z,0.30
2023-01-25T13:16:41.258Z,0.88
2023-01-25T13:19:22.300Z,1.06
2023-01-25T13:21:50.571Z,1.12
2023-01-25T13:24:18.387Z,1.30
2023-01-25T13:26:52.831Z,1.42
2023-01-25T13:29:35.938Z,1.51
2023-01-25T13:32:04.595Z,1.44
2023-01-25T13:34:42.452Z,1.35
2023-01-25T13:37:19.735Z,1.41
2023-01-25T13:39:57.164Z,1.36
2023-01-25T13:42:25.573Z,1.31
2023-01-25T13:44:58.976Z,1.43
2023-01-25T13:47:29.397Z,1.07
2023-01-25T13:50:27.922Z,1.35
2023-01-25T13:53:02.648Z,1.33
2023-01-25T13:55:38.555Z,0.90
2023-01-25T13:58:15.087Z,1.03
2023-01-25T14:00:49.921Z,0.43
2023-01-25T14:03:17.707Z,1.09
2023-01-25T14:05:52.564Z,0.88
2023-01-25T14:08:20.277Z,1.17
2023-01-25T14:10:48.528Z,0.71
2023-01-25T14:13:16.631Z,0.96
2023-01-25T14:15:57.377Z,0.85
2023-01-25T14:18:28.133Z,0.93
2023-01-25T14:21:21.871Z,1.04
2023-01-25T14:23:49.792Z,1.15
2023-01-25T14:26:19.692Z,0.75
2023-01-25T14:28:59.338Z,1.03
2023-01-25T14:31:34.653Z,1.27
2023-01-25T14:34:04.282Z,1.23
2023-01-25T14:36:34.406Z,1.30
2023-01-25T14:39:04.717Z,1.39
2023-01-25T14:41:36.563Z,1.23
2023-01-25T14:44:05.824Z,1.16
2023-01-25T14:46:36.913Z,1.36
2023-01-25T14:49:26.897Z,1.17
2023-01-25T14:52:14.442Z,1.34
2023-01-25T14:54:53.614Z,1.48
2023-01-25T14:57:34.769Z,1.42
2023-01-25T15:00:07.527Z,1.42
2023-01-25T15:02:41.203Z,1.46
2023-01-25T15:05:29.138Z,1.60
2023-01-25T15:08:09.295Z,1.59
2023-01-25T15:10:37.464Z,1.60
2023-01-25T15:13:19.323Z,1.60
2023-01-25T15:16:00.763Z,1.39
2023-01-25T15:18:51.163Z,0.30
2023-01-25T15:21:20.264Z,0.59
2023-01-25T15:23:48.391Z,0.51
2023-01-25T15:26:24.204Z,0.37
2023-01-25T15:28:53.871Z,0.69
2023-01-25T15:31:32.249Z,0.89
2023-01-25T15:34:01.475Z,1.10
2023-01-25T15:36:30.039Z,1.31
2023-01-25T15:38:57.731Z,1.37
2023-01-25T15:41:25.459Z,1.45
2023-01-25T15:43:53.266Z,1.23
2023-01-25T15:46:25.409Z,1.44
2023-01-25T15:48:53.226Z,0.66
2023-01-25T15:51:21.331Z,0.34
2023-01-25T15:53:49.356Z,0.20
2023-01-25T15:56:22.090Z,0.69
2023-01-25T15:58:54.249Z,0.37
2023-01-25T16:01:22.969Z,0.53
2023-01-25T16:03:50.963Z,0.76
2023-01-25T16:06:31.466Z,0.86
2023-01-25T16:08:59.926Z,0.99
2023-01-25T16:11:27.719Z,1.26
2023-01-25T16:13:55.541Z,0.87
2023-01-25T16:16:23.997Z,0.59
2023-01-25T16:18:51.778Z,0.99
2023-01-25T16:21:19.535Z,0.93
2023-01-25T16:23:47.417Z,0.96
2023-01-25T16:26:20.633Z,0.89
2023-01-25T16:28:48.417Z,0.90
2023-01-25T16:31:30.748Z,1.06
2023-01-25T16:34:00.728Z,1.29
2023-01-25T16:36:29.076Z,1.29
2023-01-25T16:38:57.579Z,1.17
2023-01-25T16:41:25.264Z,1.22
2023-01-25T16:43:53.557Z,1.24
2023-01-25T16:46:23.038Z,1.37
2023-01-25T16:48:52.429Z,1.48
2023-01-25T16:51:24.549Z,1.52
2023-01-25T16:53:53.230Z,1.31
2023-01-25T16:56:25.799Z,1.21
2023-01-25T16:58:54.780Z,1.35
2023-01-25T17:01:23.302Z,1.40
2023-01-25T17:03:51.329Z,1.12
2023-01-25T17:06:20.729Z,0.87
2023-01-25T17:08:48.727Z,1.19
2023-01-25T17:11:22.119Z,1.10
2023-01-25T17:13:54.550Z,1.19
2023-01-25T17:16:23.398Z,1.33
2023-01-25T17:19:12.991Z,1.52
2023-01-25T17:21:40.702Z,1.13
2023-01-25T17:24:08.646Z,1.00
2023-01-25T17:26:36.454Z,1.33
2023-01-25T17:29:04.309Z,1.38
2023-01-25T17:31:34.555Z,1.29
2023-01-25T17:34:04.481Z,1.30
2023-01-25T17:36:32.250Z,0.91
2023-01-25T17:39:06.333Z,0.63
2023-01-25T17:41:34.107Z,0.84
2023-01-25T17:44:01.983Z,0.70
2023-01-25T17:46:33.276Z,0.66
2023-01-25T17:49:02.300Z,0.56
2023-01-25T17:51:31.493Z,0.43
2023-01-25T17:53:59.585Z,0.22
2023-01-25T17:56:27.480Z,0.72
2023-01-25T17:58:55.250Z,0.78
2023-01-25T18:01:24.411Z,0.39
2023-01-25T18:03:52.979Z,0.80
2023-01-25T18:06:22.611Z,0.91
2023-01-25T18:08:51.951Z,1.12
2023-01-25T18:11:25.394Z,0.86
2023-01-25T18:13:54.732Z,0.28
2023-01-25T18:16:22.957Z,0.43
2023-01-25T18:18:51.655Z,0.74
2023-01-25T18:21:24.249Z,0.83
2023-01-25T18:23:54.076Z,0.30
2023-01-25T18:26:29.716Z,0.19
2023-01-25T18:29:10.627Z,0.57
2023-01-25T18:31:38.600Z,-0.00
2023-01-25T18:34:06.343Z,-0.16
2023-01-25T18:36:34.091Z,0.14
2023-01-25T18:39:02.216Z,-0.19
2023-01-25T18:41:29.893Z,-0.28
2023-01-25T18:43:57.742Z,0.24
2023-01-25T18:46:25.531Z,-0.02
2023-01-25T18:48:53.293Z,0.17
2023-01-25T18:51:23.141Z,0.55
2023-01-25T18:53:51.584Z,0.58
2023-01-25T18:56:20.902Z,0.89
2023-01-25T18:58:50.272Z,1.14
2023-01-25T19:01:19.866Z,0.81
2023-01-25T19:03:48.206Z,1.10
2023-01-25T19:06:15.952Z,0.96
2023-01-25T19:08:46.463Z,1.00
2023-01-25T19:11:15.094Z,0.61
2023-01-25T19:13:43.427Z,0.58
2023-01-25T19:16:20.025Z,0.94
2023-01-25T19:18:50.195Z,0.46
2023-01-25T19:21:20.054Z,0.97
2023-01-25T19:23:48.077Z,0.85
2023-01-25T19:26:17.517Z,1.21
2023-01-25T19:28:45.550Z,1.05
2023-01-25T19:31:17.805Z,1.15
2023-01-25T19:33:45.862Z,1.27
2023-01-25T19:36:19.303Z,1.12
2023-01-25T19:38:47.612Z,0.82
2023-01-25T19:41:19.947Z,1.03
2023-01-25T19:43:48.051Z,1.06
2023-01-25T19:46:17.613Z,1.08
2023-01-25T19:48:47.709Z,1.21
2023-01-25T19:51:18.967Z,1.13
2023-01-25T19:53:48.737Z,1.26
2023-01-25T19:56:17.180Z,1.11
2023-01-25T19:58:46.118Z,1.17
2023-01-25T20:01:18.722Z,1.30
2023-01-25T20:03:47.190Z,0.54
2023-01-25T20:06:15.365Z,0.59
2023-01-25T20:08:44.551Z,0.98
2023-01-25T20:11:16.180Z,0.48
2023-01-25T20:13:44.044Z,0.32
2023-01-25T20:16:12.198Z,0.77
2023-01-25T20:18:40.059Z,0.73
2023-01-25T20:21:10.124Z,0.85
2023-01-25T20:23:39.555Z,0.98
2023-01-25T20:26:15.899Z,0.32
2023-01-25T20:28:44.684Z,0.66
2023-01-25T20:31:40.869Z,0.87
2023-01-25T20:34:11.823Z,1.01
2023-01-25T20:36:39.760Z,1.07
2023-01-25T20:39:07.902Z,1.06
2023-01-25T20:41:35.592Z,0.79
2023-01-25T20:44:11.227Z,1.13
2023-01-25T20:46:40.174Z,0.70
2023-01-25T20:49:15.370Z,0.39
2023-01-25T20:51:43.340Z,0.98
2023-01-25T20:54:11.179Z,0.96
2023-01-25T20:56:39.182Z,0.99
2023-01-25T20:59:06.948Z,1.12
2023-01-25T21:01:37.082Z,1.12
2023-01-25T21:04:06.358Z,1.18
2023-01-25T21:06:35.241Z,1.16
2023-01-25T21:09:03.879Z,1.11
2023-01-25T21:11:32.051Z,0.92
2023-01-25T21:13:59.815Z,1.17
2023-01-25T21:16:27.647Z,1.14
2023-01-25T21:18:57.522Z,1.21
2023-01-25T21:21:29.087Z,1.22
2023-01-25T21:23:59.715Z,1.04
2023-01-25T21:26:31.794Z,1.15
2023-01-25T21:29:00.264Z,1.09
2023-01-25T21:31:39.129Z,1.10
2023-01-25T21:34:07.015Z,0.80
2023-01-25T21:36:34.755Z,1.11
2023-01-25T21:39:02.613Z,0.82
2023-01-25T21:41:31.212Z,0.79
2023-01-25T21:44:17.726Z,0.66
2023-01-25T21:47:05.976Z,0.86
2023-01-25T21:49:52.746Z,0.90
2023-01-25T21:52:20.493Z,0.97
2023-01-25T21:54:48.157Z,1.05
2023-01-25T21:57:15.851Z,1.12
2023-01-25T21:59:43.550Z,1.13
2023-01-25T22:02:13.166Z,1.30
2023-01-25T22:04:40.964Z,1.00
2023-01-25T22:07:08.866Z,1.19
2023-01-25T22:09:36.670Z,0.99
2023-01-25T22:12:04.463Z,0.98
2023-01-25T22:14:32.274Z,1.01
2023-01-25T22:17:00.003Z,0.97
2023-01-25T22:19:27.696Z,0.71
2023-01-25T22:21:55.432Z,1.01
2023-01-25T22:24:23.362Z,0.91
2023-01-25T22:26:53.767Z,0.97
2023-01-25T22:29:21.539Z,0.76
2023-01-25T22:31:49.198Z,0.63
2023-01-25T22:34:16.970Z,0.69
2023-01-25T22:36:44.644Z,0.71
2023-01-25T22:39:15.545Z,0.83
2023-01-25T22:41:43.372Z,0.40
2023-01-25T22:44:11.250Z,0.57
2023-01-25T22:46:38.947Z,0.59
2023-01-25T22:49:06.740Z,0.69
2023-01-25T22:51:34.515Z,0.82
2023-01-25T22:54:02.244Z,0.74
2023-01-25T22:56:33.893Z,0.86
2023-01-25T22:59:01.749Z,0.88
2023-01-25T23:01:31.386Z,0.93
2023-01-25T23:03:59.278Z,0.65
2023-01-25T23:06:28.504Z,0.56
2023-01-25T23:09:00.259Z,0.73
2023-01-25T23:11:35.412Z,0.94
2023-01-25T23:14:28.177Z,0.89
2023-01-25T23:17:15.870Z,0.70
2023-01-25T23:19:43.634Z,0.89
2023-01-25T23:22:11.326Z,0.91
2023-01-25T23:24:39.096Z,0.85
2023-01-25T23:27:06.799Z,0.95
2023-01-25T23:29:34.695Z,0.95
2023-01-25T23:32:02.429Z,1.07
2023-01-25T23:34:34.754Z,1.01
2023-01-25T23:37:03.495Z,1.02
2023-01-25T23:39:31.218Z,0.89
2023-01-25T23:41:58.930Z,0.89
2023-01-25T23:44:26.686Z,0.69
2023-01-25T23:46:54.377Z,0.31
2023-01-25T23:49:22.103Z,0.52
2023-01-25T23:51:49.802Z,0.26
2023-01-25T23:54:17.564Z,0.39
2023-01-25T23:56:45.225Z,0.39
2023-01-25T23:59:12.964Z,0.46
